Time;durP1;ratioP1;P1;durP2;ratioP2;P2;SDS_P1;SDS_P2;PMS_P1;PMS_P2;Temp;Humidity;BMP_temperature;BMP_pressure;BME280_temperature;BME280_humidity;BME280_pressure;Samples;Min_cycle;Max_cycle;Signal;HPM_P1;HPM_P2
2023/07/31 00:01:04;;;;;;;13.88;13.00;;;;;;;;;;5074851;28;20390;-69
2023/07/31 00:03:30;;;;;;;14.48;13.57;;;;;;;;;;5077848;28;20466;-69
2023/07/31 00:05:55;;;;;;;14.00;13.15;;;;;;;;;;5076756;28;20035;-68
2023/07/31 00:08:20;;;;;;;16.27;15.38;;;;;;;;;;5075354;28;20028;-68
2023/07/31 00:10:46;;;;;;;24.75;23.40;;;;;;;;;;5074836;28;20043;-68
2023/07/31 00:13:11;;;;;;;13.70;12.80;;;;;;;;;;5074708;28;20032;-68
2023/07/31 00:15:36;;;;;;;18.13;16.85;;;;;;;;;;5076576;28;20082;-68
2023/07/31 00:18:02;;;;;;;21.98;20.77;;;;;;;;;;5074425;28;20032;-68
2023/07/31 00:20:27;;;;;;;15.50;14.60;;;;;;;;;;5074458;28;20357;-68
2023/07/31 00:22:53;;;;;;;17.42;16.42;;;;;;;;;;5073935;28;20044;-68
2023/07/31 00:25:18;;;;;;;13.93;13.13;;;;;;;;;;5074078;28;20111;-68
2023/07/31 00:27:45;;;;;;;11.45;10.75;;;;;;;;;;5075562;28;20040;-68
2023/07/31 00:30:11;;;;;;;12.32;11.63;;;;;;;;;;5073556;28;20122;-68
2023/07/31 00:32:37;;;;;;;13.82;13.02;;;;;;;;;;5073969;28;20094;-68
2023/07/31 00:35:02;;;;;;;12.00;11.30;;;;;;;;;;5073390;28;20035;-69
2023/07/31 00:37:28;;;;;;;11.07;10.38;;;;;;;;;;5076059;28;20037;-68
2023/07/31 00:39:53;;;;;;;11.45;10.75;;;;;;;;;;5077217;28;20572;-68
2023/07/31 00:42:19;;;;;;;12.60;11.90;;;;;;;;;;5078160;28;20032;-68
2023/07/31 00:44:44;;;;;;;9.98;9.38;;;;;;;;;;5075678;28;20035;-68
2023/07/31 00:47:10;;;;;;;12.45;11.65;;;;;;;;;;5079409;28;20374;-69
2023/07/31 00:49:35;;;;;;;15.32;13.35;;;;;;;;;;5079884;28;20078;-69
2023/07/31 00:52:02;;;;;;;12.45;11.75;;;;;;;;;;5078575;28;20101;-68
2023/07/31 00:54:27;;;;;;;12.57;11.77;;;;;;;;;;5077636;28;24255;-68
2023/07/31 00:56:54;;;;;;;10.30;9.70;;;;;;;;;;5079181;28;20127;-67
2023/07/31 00:59:19;;;;;;;14.35;13.55;;;;;;;;;;5077283;28;20021;-69
2023/07/31 01:01:45;;;;;;;11.65;10.95;;;;;;;;;;5079284;28;20528;-68
2023/07/31 01:04:11;;;;;;;11.50;10.80;;;;;;;;;;5078635;28;20049;-68
2023/07/31 01:06:53;;;;;;;13.85;13.05;;;;;;;;;;5076924;28;20043;-68
2023/07/31 01:09:30;;;;;;;10.43;9.73;;;;;;;;;;5078731;28;20115;-68
2023/07/31 01:12:00;;;;;;;10.63;9.98;;;;;;;;;;5077194;28;20469;-68
2023/07/31 01:14:25;;;;;;;15.23;11.93;;;;;;;;;;5077245;28;20376;-68
2023/07/31 01:16:50;;;;;;;11.55;10.80;;;;;;;;;;5077124;28;20033;-67
2023/07/31 01:19:18;;;;;;;14.88;13.95;;;;;;;;;;5079573;28;20032;-68
2023/07/31 01:22:04;;;;;;;10.63;10.02;;;;;;;;;;5078164;28;20547;-68
2023/07/31 01:24:49;;;;;;;10.73;10.10;;;;;;;;;;5078699;28;20036;-68
2023/07/31 01:27:23;;;;;;;10.48;9.82;;;;;;;;;;5077726;28;20047;-68
2023/07/31 01:30:10;;;;;;;10.60;9.98;;;;;;;;;;5076808;28;20466;-68
2023/07/31 01:32:38;;;;;;;10.55;9.93;;;;;;;;;;5077849;28;20036;-68
2023/07/31 01:35:04;;;;;;;10.65;9.95;;;;;;;;;;5079572;28;20407;-68
2023/07/31 01:37:30;;;;;;;10.73;10.02;;;;;;;;;;5077796;28;20071;-68
2023/07/31 01:39:55;;;;;;;12.05;11.27;;;;;;;;;;5077728;28;20028;-68
2023/07/31 01:42:20;;;;;;;10.90;10.20;;;;;;;;;;5079079;28;20453;-68
2023/07/31 01:44:46;;;;;;;12.82;12.13;;;;;;;;;;5077034;28;20036;-68
2023/07/31 01:47:11;;;;;;;11.82;11.13;;;;;;;;;;5077681;28;20036;-68
2023/07/31 01:49:36;;;;;;;14.02;12.93;;;;;;;;;;5073067;28;20040;-68
2023/07/31 01:52:02;;;;;;;14.02;13.18;;;;;;;;;;5075776;28;20024;-68
2023/07/31 01:54:27;;;;;;;12.20;11.50;;;;;;;;;;5079311;28;20047;-68
2023/07/31 01:56:52;;;;;;;12.68;11.98;;;;;;;;;;5075917;28;20042;-68
2023/07/31 01:59:18;;;;;;;11.30;10.60;;;;;;;;;;5079663;28;20072;-68
2023/07/31 02:01:43;;;;;;;16.15;15.15;;;;;;;;;;5076604;28;20036;-68
2023/07/31 02:04:09;;;;;;;14.65;13.82;;;;;;;;;;5077504;28;20024;-68
2023/07/31 02:06:34;;;;;;;18.42;17.42;;;;;;;;;;5076892;28;21580;-68
2023/07/31 02:09:00;;;;;;;12.65;11.85;;;;;;;;;;5079558;28;20174;-68
2023/07/31 02:11:25;;;;;;;13.32;12.43;;;;;;;;;;5077062;28;20051;-67
2023/07/31 02:13:50;;;;;;;12.70;11.90;;;;;;;;;;5076948;28;20043;-67
2023/07/31 02:16:16;;;;;;;12.45;11.57;;;;;;;;;;5079447;28;20029;-68
2023/07/31 02:18:41;;;;;;;13.70;12.90;;;;;;;;;;5078462;28;20059;-68
2023/07/31 02:21:09;;;;;;;12.80;12.00;;;;;;;;;;5075078;28;20273;-67
2023/07/31 02:23:35;;;;;;;13.95;13.10;;;;;;;;;;5081765;28;20071;-69
2023/07/31 02:26:00;;;;;;;14.80;13.90;;;;;;;;;;5077079;28;20122;-68
2023/07/31 02:28:25;;;;;;;12.48;11.68;;;;;;;;;;5076975;28;20036;-66
2023/07/31 02:30:52;;;;;;;13.35;12.55;;;;;;;;;;5080213;28;20028;-67
2023/07/31 02:33:17;;;;;;;14.25;13.35;;;;;;;;;;5074967;28;20028;-69
2023/07/31 02:35:43;;;;;;;17.35;16.15;;;;;;;;;;5075780;28;20055;-69
2023/07/31 02:38:08;;;;;;;14.02;13.23;;;;;;;;;;5079699;28;20032;-67
2023/07/31 02:40:33;;;;;;;11.68;10.95;;;;;;;;;;5075822;28;20028;-67
2023/07/31 02:42:59;;;;;;;12.80;12.10;;;;;;;;;;5073300;28;20039;-67
2023/07/31 02:45:24;;;;;;;15.68;14.80;;;;;;;;;;5077636;28;20036;-67
2023/07/31 02:47:49;;;;;;;12.80;12.05;;;;;;;;;;5075571;28;20095;-69
2023/07/31 02:50:15;;;;;;;11.38;10.68;;;;;;;;;;5079054;28;20032;-67
2023/07/31 02:52:40;;;;;;;14.68;13.77;;;;;;;;;;5072928;28;20055;-66
2023/07/31 02:55:06;;;;;;;13.65;12.75;;;;;;;;;;5075329;28;20344;-69
2023/07/31 02:57:31;;;;;;;15.63;14.63;;;;;;;;;;5073609;28;20032;-67
2023/07/31 02:59:57;;;;;;;12.93;12.13;;;;;;;;;;5076615;28;20035;-67
2023/07/31 03:02:22;;;;;;;13.32;12.52;;;;;;;;;;5077678;28;20107;-69
2023/07/31 03:04:47;;;;;;;12.30;11.60;;;;;;;;;;5076658;28;20119;-68
2023/07/31 03:07:13;;;;;;;15.07;13.95;;;;;;;;;;5074288;28;20122;-68
2023/07/31 03:09:38;;;;;;;11.60;10.90;;;;;;;;;;5083415;28;20067;-68
2023/07/31 03:12:04;;;;;;;14.63;13.70;;;;;;;;;;5073986;28;20033;-68
2023/07/31 03:14:29;;;;;;;11.82;11.02;;;;;;;;;;5075431;28;20024;-68
2023/07/31 03:16:54;;;;;;;13.18;12.38;;;;;;;;;;5075740;28;20024;-69
2023/07/31 03:19:20;;;;;;;26.63;14.73;;;;;;;;;;5075721;28;20437;-69
2023/07/31 03:21:45;;;;;;;12.35;11.55;;;;;;;;;;5074677;28;20070;-68
2023/07/31 03:24:12;;;;;;;12.57;11.77;;;;;;;;;;5074489;28;20281;-68
2023/07/31 03:26:41;;;;;;;12.38;11.48;;;;;;;;;;5074686;28;20094;-68
2023/07/31 03:29:06;;;;;;;11.45;10.48;;;;;;;;;;5078388;28;20117;-68
2023/07/31 03:31:32;;;;;;;12.35;9.73;;;;;;;;;;5073806;28;20118;-69
2023/07/31 03:33:57;;;;;;;11.27;10.57;;;;;;;;;;5074171;28;20039;-68
2023/07/31 03:36:22;;;;;;;11.00;10.30;;;;;;;;;;5073264;28;20040;-68
2023/07/31 03:38:48;;;;;;;11.10;10.40;;;;;;;;;;5078395;28;20034;-68
2023/07/31 03:41:13;;;;;;;13.52;12.63;;;;;;;;;;5076038;28;20048;-68
2023/07/31 03:43:38;;;;;;;11.55;10.85;;;;;;;;;;5075176;28;20036;-68
2023/07/31 03:46:04;;;;;;;12.40;11.70;;;;;;;;;;5077740;28;20029;-68
2023/07/31 03:48:29;;;;;;;12.60;11.82;;;;;;;;;;5077054;28;20043;-68
2023/07/31 03:50:55;;;;;;;11.90;11.00;;;;;;;;;;5073443;28;20055;-67
2023/07/31 03:53:20;;;;;;;10.13;9.52;;;;;;;;;;5076034;28;20067;-68
2023/07/31 03:55:46;;;;;;;12.95;12.05;;;;;;;;;;5075197;28;20367;-68
2023/07/31 03:58:11;;;;;;;11.90;11.20;;;;;;;;;;5074611;28;20480;-68
2023/07/31 04:00:36;;;;;;;14.35;13.45;;;;;;;;;;5075339;28;20031;-68
2023/07/31 04:03:02;;;;;;;14.00;13.18;;;;;;;;;;5074561;28;20517;-68
2023/07/31 04:05:30;;;;;;;13.95;13.15;;;;;;;;;;5074801;28;20036;-69
2023/07/31 04:07:55;;;;;;;13.65;12.82;;;;;;;;;;5077446;28;20055;-68
2023/07/31 04:10:20;;;;;;;13.52;12.73;;;;;;;;;;5076895;28;20052;-68
2023/07/31 04:12:46;;;;;;;16.20;15.20;;;;;;;;;;5075379;28;20391;-68
2023/07/31 04:15:11;;;;;;;14.30;13.48;;;;;;;;;;5074261;28;20506;-68
2023/07/31 04:17:36;;;;;;;14.23;13.38;;;;;;;;;;5076822;28;20056;-68
2023/07/31 04:20:02;;;;;;;13.02;12.23;;;;;;;;;;5077422;28;20041;-68
2023/07/31 04:22:27;;;;;;;16.67;15.75;;;;;;;;;;5077074;28;20492;-68
2023/07/31 04:24:53;;;;;;;14.63;13.77;;;;;;;;;;5079211;28;20135;-68
2023/07/31 04:27:18;;;;;;;14.10;13.20;;;;;;;;;;5079398;28;20048;-68
2023/07/31 04:29:45;;;;;;;13.98;13.18;;;;;;;;;;5076071;28;20335;-68
2023/07/31 04:32:11;;;;;;;14.23;13.43;;;;;;;;;;5079521;28;20043;-68
2023/07/31 04:34:36;;;;;;;18.08;17.08;;;;;;;;;;5075979;28;20221;-68
2023/07/31 04:37:02;;;;;;;13.05;12.27;;;;;;;;;;5079032;28;20034;-68
2023/07/31 04:39:27;;;;;;;12.27;11.57;;;;;;;;;;5081580;28;20122;-68
2023/07/31 04:41:52;;;;;;;14.13;13.10;;;;;;;;;;5079748;28;20033;-69
2023/07/31 04:44:18;;;;;;;17.23;16.25;;;;;;;;;;5075672;28;20044;-68
2023/07/31 04:46:43;;;;;;;13.00;12.20;;;;;;;;;;5077389;28;20037;-69
2023/07/31 04:49:08;;;;;;;14.25;13.35;;;;;;;;;;5080644;28;20134;-68
2023/07/31 04:51:34;;;;;;;12.65;11.95;;;;;;;;;;5075862;28;20031;-68
2023/07/31 04:53:59;;;;;;;15.25;14.07;;;;;;;;;;5077246;28;20400;-69
2023/07/31 04:56:24;;;;;;;13.65;12.65;;;;;;;;;;5076503;28;20032;-69
2023/07/31 04:58:50;;;;;;;15.00;14.13;;;;;;;;;;5078532;28;20032;-68
2023/07/31 05:01:15;;;;;;;12.43;11.70;;;;;;;;;;5075941;28;20028;-68
2023/07/31 05:03:40;;;;;;;13.00;12.23;;;;;;;;;;5076693;28;20108;-69
2023/07/31 05:06:06;;;;;;;12.23;11.52;;;;;;;;;;5074104;28;20032;-69
2023/07/31 05:08:31;;;;;;;13.20;12.40;;;;;;;;;;5080019;28;20028;-68
2023/07/31 05:10:56;;;;;;;12.15;11.35;;;;;;;;;;5077784;28;20094;-68
2023/07/31 05:13:22;;;;;;;13.05;12.30;;;;;;;;;;5078980;28;20385;-68
2023/07/31 05:15:49;;;;;;;13.07;12.27;;;;;;;;;;5078770;28;20064;-67
2023/07/31 05:18:14;;;;;;;15.23;14.05;;;;;;;;;;5080292;28;20361;-68
2023/07/31 05:20:40;;;;;;;14.60;13.25;;;;;;;;;;5076840;28;20032;-68
2023/07/31 05:23:05;;;;;;;13.48;12.70;;;;;;;;;;5075136;28;20115;-68
2023/07/31 05:25:31;;;;;;;12.43;11.73;;;;;;;;;;5077831;28;20138;-68
2023/07/31 05:27:56;;;;;;;12.35;11.55;;;;;;;;;;5078282;28;20032;-68
2023/07/31 05:30:21;;;;;;;11.80;11.10;;;;;;;;;;5078353;28;20036;-68
2023/07/31 05:32:47;;;;;;;11.60;10.90;;;;;;;;;;5078992;28;20031;-68
2023/07/31 05:35:12;;;;;;;11.82;11.13;;;;;;;;;;5076504;28;20036;-68
2023/07/31 05:37:37;;;;;;;11.98;11.27;;;;;;;;;;5077398;28;20384;-68
2023/07/31 05:40:03;;;;;;;14.73;13.70;;;;;;;;;;5081132;28;20541;-67
2023/07/31 05:42:29;;;;;;;13.75;12.95;;;;;;;;;;5079489;28;20040;-68
2023/07/31 05:44:54;;;;;;;22.27;12.38;;;;;;;;;;5076849;28;20344;-73
2023/07/31 05:47:20;;;;;;;12.88;12.07;;;;;;;;;;5080101;28;20072;-68
2023/07/31 05:49:45;;;;;;;13.18;12.38;;;;;;;;;;5074423;28;20044;-68
2023/07/31 05:52:10;;;;;;;13.43;12.63;;;;;;;;;;5075053;28;20767;-68
2023/07/31 05:54:36;;;;;;;15.30;14.30;;;;;;;;;;5078304;28;20106;-68
2023/07/31 05:57:01;;;;;;;13.45;12.68;;;;;;;;;;5076448;28;20029;-69
2023/07/31 05:59:26;;;;;;;12.90;12.10;;;;;;;;;;5077491;28;20037;-68
2023/07/31 06:01:52;;;;;;;13.15;12.35;;;;;;;;;;5084138;28;20032;-69
2023/07/31 06:04:18;;;;;;;13.02;12.13;;;;;;;;;;5075310;28;20243;-68
2023/07/31 06:06:43;;;;;;;13.10;12.30;;;;;;;;;;5081537;28;20122;-69
2023/07/31 06:09:08;;;;;;;12.55;11.85;;;;;;;;;;5078128;28;20042;-69
2023/07/31 06:11:34;;;;;;;12.95;12.05;;;;;;;;;;5079007;28;20354;-69
2023/07/31 06:13:59;;;;;;;11.82;11.05;;;;;;;;;;5078108;28;20028;-68
2023/07/31 06:16:26;;;;;;;13.63;12.82;;;;;;;;;;5077804;28;20111;-68
2023/07/31 06:18:52;;;;;;;11.73;11.02;;;;;;;;;;5078170;28;20368;-69
2023/07/31 06:21:17;;;;;;;10.60;9.90;;;;;;;;;;5079703;28;20031;-69
2023/07/31 06:23:43;;;;;;;11.45;10.75;;;;;;;;;;5078453;28;20063;-69
2023/07/31 06:26:08;;;;;;;12.52;11.73;;;;;;;;;;5078431;28;20447;-68
2023/07/31 06:28:35;;;;;;;11.35;10.65;;;;;;;;;;5078696;28;20187;-69
2023/07/31 06:31:00;;;;;;;12.68;11.88;;;;;;;;;;5076530;28;20469;-68
2023/07/31 06:33:27;;;;;;;11.82;11.13;;;;;;;;;;5077715;28;20042;-68
2023/07/31 06:35:52;;;;;;;11.00;10.35;;;;;;;;;;5075946;28;20466;-69
2023/07/31 06:38:24;;;;;;;11.20;10.50;;;;;;;;;;5078524;28;20055;-70
2023/07/31 06:40:49;;;;;;;12.30;11.50;;;;;;;;;;5077283;28;20039;-68
2023/07/31 06:43:14;;;;;;;11.98;11.27;;;;;;;;;;5080606;28;20043;-69
2023/07/31 06:45:40;;;;;;;12.02;11.32;;;;;;;;;;5077122;28;20473;-69
2023/07/31 06:48:06;;;;;;;13.35;12.48;;;;;;;;;;5075355;28;20066;-69
2023/07/31 06:50:32;;;;;;;11.57;10.88;;;;;;;;;;5076998;28;20577;-69
2023/07/31 06:52:57;;;;;;;13.18;12.38;;;;;;;;;;5074951;28;20033;-68
2023/07/31 06:55:23;;;;;;;11.85;11.15;;;;;;;;;;5077719;28;20457;-68
2023/07/31 06:57:51;;;;;;;14.90;14.00;;;;;;;;;;5077944;28;20032;-69
2023/07/31 07:00:18;;;;;;;15.02;14.13;;;;;;;;;;5076084;28;20150;-69
2023/07/31 07:02:44;;;;;;;14.00;13.20;;;;;;;;;;5076677;28;20077;-68
2023/07/31 07:05:09;;;;;;;12.35;11.65;;;;;;;;;;5073963;28;20031;-69
2023/07/31 07:07:36;;;;;;;13.13;12.35;;;;;;;;;;5075386;28;20056;-68
2023/07/31 07:10:01;;;;;;;13.52;12.73;;;;;;;;;;5076505;28;20035;-69
2023/07/31 07:12:31;;;;;;;12.43;11.73;;;;;;;;;;5079968;28;20040;-68
2023/07/31 07:14:57;;;;;;;13.30;12.45;;;;;;;;;;5074020;28;20036;-69
2023/07/31 07:17:23;;;;;;;12.30;11.60;;;;;;;;;;5075065;28;20357;-68
2023/07/31 07:19:48;;;;;;;14.55;13.65;;;;;;;;;;5077382;28;20118;-68
2023/07/31 07:22:14;;;;;;;14.02;13.02;;;;;;;;;;5077319;28;20048;-67
2023/07/31 07:24:39;;;;;;;14.25;13.35;;;;;;;;;;5076653;28;20060;-68
2023/07/31 07:27:05;;;;;;;21.02;19.65;;;;;;;;;;5075869;28;20044;-68
2023/07/31 07:29:30;;;;;;;18.05;17.05;;;;;;;;;;5074949;28;20028;-68
2023/07/31 07:31:56;;;;;;;14.55;13.65;;;;;;;;;;5074098;28;20082;-67
2023/07/31 07:34:28;;;;;;;16.35;15.45;;;;;;;;;;5076426;28;20679;-69
2023/07/31 07:36:54;;;;;;;17.10;16.15;;;;;;;;;;5075205;28;20036;-69
2023/07/31 07:39:22;;;;;;;20.40;19.15;;;;;;;;;;5077221;28;20036;-68
2023/07/31 07:41:48;;;;;;;23.40;22.08;;;;;;;;;;5077423;28;20476;-70
2023/07/31 07:44:14;;;;;;;26.83;25.33;;;;;;;;;;5078652;28;20115;-68
2023/07/31 07:46:40;;;;;;;25.60;24.25;;;;;;;;;;5078315;28;20044;-69
2023/07/31 07:49:05;;;;;;;25.27;23.95;;;;;;;;;;5076411;28;20077;-70
2023/07/31 07:51:31;;;;;;;25.00;23.65;;;;;;;;;;5076759;28;20047;-68
2023/07/31 07:53:57;;;;;;;25.83;24.48;;;;;;;;;;5078812;28;20481;-69
2023/07/31 07:56:23;;;;;;;28.08;26.60;;;;;;;;;;5077621;28;20058;-68
2023/07/31 07:58:50;;;;;;;26.95;25.50;;;;;;;;;;5077592;28;20036;-68
2023/07/31 08:01:15;;;;;;;25.40;24.10;;;;;;;;;;5075860;28;20056;-68
2023/07/31 08:03:41;;;;;;;23.02;21.80;;;;;;;;;;5076391;28;20086;-70
2023/07/31 08:06:09;;;;;;;24.13;22.85;;;;;;;;;;5073753;28;20036;-68
2023/07/31 08:08:34;;;;;;;25.55;24.15;;;;;;;;;;5072993;28;20037;-67
2023/07/31 08:10:59;;;;;;;17.52;16.52;;;;;;;;;;5072077;28;20342;-69
2023/07/31 08:13:25;;;;;;;16.65;15.75;;;;;;;;;;5074231;28;20050;-68
2023/07/31 08:15:50;;;;;;;26.02;24.65;;;;;;;;;;5074546;28;20464;-68
2023/07/31 08:18:17;;;;;;;31.63;29.67;;;;;;;;;;5077331;28;20354;-68
2023/07/31 08:20:42;;;;;;;26.17;24.77;;;;;;;;;;5073480;28;20028;-71
2023/07/31 08:23:08;;;;;;;26.77;25.33;;;;;;;;;;5072793;28;20421;-68
2023/07/31 08:25:35;;;;;;;30.15;28.58;;;;;;;;;;5074673;28;20375;-68
2023/07/31 08:28:01;;;;;;;30.23;28.65;;;;;;;;;;5076849;28;20058;-69
2023/07/31 08:30:26;;;;;;;31.00;29.40;;;;;;;;;;5077225;28;20044;-69
2023/07/31 08:32:52;;;;;;;27.95;26.48;;;;;;;;;;5078692;28;20052;-71
2023/07/31 08:35:17;;;;;;;28.50;27.00;;;;;;;;;;5075379;28;20028;-70
2023/07/31 08:37:43;;;;;;;29.92;28.33;;;;;;;;;;5074741;28;20054;-72
2023/07/31 08:40:09;;;;;;;30.75;29.10;;;;;;;;;;5078387;28;20097;-72
2023/07/31 08:42:43;;;;;;;28.67;27.17;;;;;;;;;;5078181;28;20059;-73
2023/07/31 08:45:09;;;;;;;25.90;24.50;;;;;;;;;;5072657;28;20032;-70
2023/07/31 08:47:35;;;;;;;26.05;24.65;;;;;;;;;;5072613;28;20025;-71
2023/07/31 08:50:01;;;;;;;27.67;26.13;;;;;;;;;;5072846;28;20408;-71
2023/07/31 08:52:27;;;;;;;24.23;22.92;;;;;;;;;;5077341;28;20059;-71
2023/07/31 08:54:53;;;;;;;23.02;21.83;;;;;;;;;;5075625;28;20368;-74
2023/07/31 08:57:19;;;;;;;23.83;22.52;;;;;;;;;;5074451;28;20036;-71
2023/07/31 08:59:45;;;;;;;25.38;23.98;;;;;;;;;;5073745;28;20051;-72
2023/07/31 09:02:13;;;;;;;19.17;18.08;;;;;;;;;;5073695;28;20136;-72
2023/07/31 09:04:40;;;;;;;31.38;29.77;;;;;;;;;;5075202;28;20062;-71
2023/07/31 09:07:06;;;;;;;28.02;26.52;;;;;;;;;;5074884;28;20398;-71
2023/07/31 09:09:31;;;;;;;32.00;30.05;;;;;;;;;;5078828;28;20048;-71
2023/07/31 09:11:58;;;;;;;28.25;26.77;;;;;;;;;;5079847;28;20023;-72
2023/07/31 09:14:25;;;;;;;36.30;34.45;;;;;;;;;;5076520;28;20416;-71
2023/07/31 09:16:54;;;;;;;38.70;36.70;;;;;;;;;;5078074;28;20109;-72
2023/07/31 09:19:34;;;;;;;36.58;34.58;;;;;;;;;;5076393;28;20097;-72
2023/07/31 09:22:00;;;;;;;34.17;32.40;;;;;;;;;;5075618;28;20036;-73
2023/07/31 09:24:33;;;;;;;35.42;33.42;;;;;;;;;;5078168;28;20032;-72
2023/07/31 09:27:00;;;;;;;33.75;32.00;;;;;;;;;;5077618;28;20081;-72
2023/07/31 09:29:27;;;;;;;35.83;33.33;;;;;;;;;;5077973;28;20379;-72
2023/07/31 09:31:53;;;;;;;35.00;33.20;;;;;;;;;;5078992;28;20024;-71
2023/07/31 09:34:19;;;;;;;31.05;29.35;;;;;;;;;;5076398;28;20089;-71
2023/07/31 09:36:47;;;;;;;38.92;36.90;;;;;;;;;;5079399;28;20036;-70
2023/07/31 09:39:13;;;;;;;27.25;25.80;;;;;;;;;;5078678;28;20097;-70
2023/07/31 09:41:44;;;;;;;26.85;25.45;;;;;;;;;;5079133;28;20029;-69
2023/07/31 09:44:10;;;;;;;28.17;26.52;;;;;;;;;;5081523;28;20054;-71
2023/07/31 09:46:37;;;;;;;15.65;14.75;;;;;;;;;;5079277;28;20134;-73
2023/07/31 09:49:14;;;;;;;13.40;12.60;;;;;;;;;;5077316;28;20028;-76
2023/07/31 09:51:41;;;;;;;29.58;27.98;;;;;;;;;;5076428;28;20107;-70
2023/07/31 09:54:16;;;;;;;42.95;40.75;;;;;;;;;;5080908;28;20035;-72
2023/07/31 09:56:48;;;;;;;31.20;29.50;;;;;;;;;;5077340;28;20032;-71
2023/07/31 09:59:16;;;;;;;36.03;34.15;;;;;;;;;;5074235;28;20096;-71
2023/07/31 10:01:43;;;;;;;15.70;14.80;;;;;;;;;;5077205;28;20411;-72
2023/07/31 10:04:10;;;;;;;24.67;23.38;;;;;;;;;;5079256;28;20158;-71
2023/07/31 10:06:36;;;;;;;13.68;12.88;;;;;;;;;;5076710;28;20103;-76
2023/07/31 10:09:05;;;;;;;12.73;11.93;;;;;;;;;;5076889;28;20111;-71
2023/07/31 10:11:37;;;;;;;15.55;14.65;;;;;;;;;;5085646;28;20023;-70
2023/07/31 10:14:04;;;;;;;13.65;12.65;;;;;;;;;;5077886;28;20028;-76
2023/07/31 10:16:31;;;;;;;22.73;21.48;;;;;;;;;;5075224;28;20131;-70
2023/07/31 10:18:56;;;;;;;15.95;15.05;;;;;;;;;;5079250;28;20409;-72
2023/07/31 10:21:22;;;;;;;14.57;13.63;;;;;;;;;;5076645;28;20122;-72
2023/07/31 10:23:48;;;;;;;11.70;11.00;;;;;;;;;;5078645;28;20119;-73
2023/07/31 10:26:18;;;;;;;11.75;11.05;;;;;;;;;;5079732;28;20089;-75
2023/07/31 10:28:46;;;;;;;11.32;10.63;;;;;;;;;;5080170;28;20664;-82
2023/07/31 10:31:15;;;;;;;13.85;13.05;;;;;;;;;;5077959;28;20332;-78
2023/07/31 10:33:40;;;;;;;11.82;10.98;;;;;;;;;;5079318;28;20040;-74
2023/07/31 10:36:19;;;;;;;27.02;25.60;;;;;;;;;;5079588;28;20043;-73
2023/07/31 10:38:45;;;;;;;13.98;13.07;;;;;;;;;;5077685;28;20048;-72
2023/07/31 10:41:11;;;;;;;12.90;12.15;;;;;;;;;;5078207;28;20043;-72
2023/07/31 10:43:39;;;;;;;11.95;11.25;;;;;;;;;;5077842;28;20028;-73
2023/07/31 10:46:12;;;;;;;25.42;24.08;;;;;;;;;;5076449;28;20149;-75
2023/07/31 10:48:41;;;;;;;19.52;18.42;;;;;;;;;;5076889;28;20057;-80
2023/07/31 10:51:09;;;;;;;13.23;12.43;;;;;;;;;;5078247;28;20051;-73
2023/07/31 10:53:35;;;;;;;37.28;35.28;;;;;;;;;;5075868;28;20688;-74
2023/07/31 10:56:06;;;;;;;19.17;18.08;;;;;;;;;;5079483;28;20110;-70
2023/07/31 10:58:33;;;;;;;27.88;26.42;;;;;;;;;;5080811;28;20034;-68
2023/07/31 11:01:01;;;;;;;21.60;20.42;;;;;;;;;;5076578;28;20032;-75
2023/07/31 11:03:43;;;;;;;14.18;13.38;;;;;;;;;;5073532;28;20033;-74
2023/07/31 11:06:09;;;;;;;18.02;17.02;;;;;;;;;;5075879;28;20029;-74
2023/07/31 11:08:41;;;;;;;30.95;29.23;;;;;;;;;;5076641;28;20101;-74
2023/07/31 11:11:08;;;;;;;24.58;23.27;;;;;;;;;;5080062;28;20032;-79
2023/07/31 11:13:40;;;;;;;17.42;16.42;;;;;;;;;;5079301;28;20038;-75
2023/07/31 11:16:06;;;;;;;17.15;16.15;;;;;;;;;;5075878;28;20020;-73
2023/07/31 11:18:31;;;;;;;16.42;15.35;;;;;;;;;;5079778;28;20134;-72
2023/07/31 11:20:57;;;;;;;23.75;22.45;;;;;;;;;;5076825;28;20036;-73
2023/07/31 11:23:23;;;;;;;16.13;15.23;;;;;;;;;;5075697;28;20062;-73
2023/07/31 11:25:49;;;;;;;15.45;14.48;;;;;;;;;;5075869;28;20028;-71
2023/07/31 11:28:16;;;;;;;18.00;17.00;;;;;;;;;;5079021;28;20050;-69
2023/07/31 11:30:43;;;;;;;25.25;23.92;;;;;;;;;;5077290;28;20115;-72
2023/07/31 11:33:11;;;;;;;26.75;25.27;;;;;;;;;;5077097;28;20036;-70
2023/07/31 11:35:43;;;;;;;16.08;15.07;;;;;;;;;;5076737;28;20047;-69
2023/07/31 11:38:08;;;;;;;19.27;18.08;;;;;;;;;;5075379;28;20618;-71
2023/07/31 11:40:44;;;;;;;14.52;13.73;;;;;;;;;;5074230;28;20038;-72
2023/07/31 11:43:11;;;;;;;21.63;20.23;;;;;;;;;;5074979;28;20375;-71
2023/07/31 11:45:38;;;;;;;17.38;16.38;;;;;;;;;;5077454;28;20079;-70
2023/07/31 11:48:03;;;;;;;20.92;19.80;;;;;;;;;;5075674;28;20020;-70
2023/07/31 11:50:35;;;;;;;18.73;17.73;;;;;;;;;;5075596;28;20032;-72
2023/07/31 11:53:07;;;;;;;16.92;15.93;;;;;;;;;;5075111;28;20082;-70
2023/07/31 11:55:33;;;;;;;15.93;14.68;;;;;;;;;;5074661;28;20139;-71
2023/07/31 11:57:59;;;;;;;16.63;15.73;;;;;;;;;;5077711;28;20115;-70
2023/07/31 12:00:26;;;;;;;16.52;15.50;;;;;;;;;;5074908;28;20035;-72
2023/07/31 12:02:52;;;;;;;18.65;17.55;;;;;;;;;;5075430;28;20539;-71
2023/07/31 12:05:18;;;;;;;15.90;14.95;;;;;;;;;;5072572;28;20046;-71
2023/07/31 12:07:47;;;;;;;19.27;18.17;;;;;;;;;;5074909;28;20449;-72
2023/07/31 12:10:27;;;;;;;14.32;13.52;;;;;;;;;;5055717;28;20467;-72
2023/07/31 12:13:10;;;;;;;12.95;12.18;;;;;;;;;;5073031;28;20032;-73
2023/07/31 12:15:40;;;;;;;19.33;18.20;;;;;;;;;;5080717;28;20024;-71
2023/07/31 12:18:19;;;;;;;13.70;12.90;;;;;;;;;;5075593;28;20028;-72
2023/07/31 12:20:53;;;;;;;16.83;15.88;;;;;;;;;;5077915;28;20047;-72
2023/07/31 12:23:27;;;;;;;16.42;15.52;;;;;;;;;;5081084;28;20108;-75
2023/07/31 12:26:14;;;;;;;16.42;15.43;;;;;;;;;;5077454;28;20035;-74
2023/07/31 12:28:42;;;;;;;13.73;12.57;;;;;;;;;;5081401;28;20043;-73
2023/07/31 12:31:20;;;;;;;13.00;12.23;;;;;;;;;;5077730;28;20036;-73
2023/07/31 12:33:49;;;;;;;15.23;14.32;;;;;;;;;;5074396;28;20051;-74
2023/07/31 12:36:24;;;;;;;14.20;13.40;;;;;;;;;;5081506;28;20044;-74
2023/07/31 12:38:51;;;;;;;13.05;12.25;;;;;;;;;;5075315;28;20064;-75
2023/07/31 12:41:17;;;;;;;13.77;12.98;;;;;;;;;;5077330;28;20229;-74
2023/07/31 12:43:44;;;;;;;14.88;13.98;;;;;;;;;;5082170;28;20024;-77
2023/07/31 12:46:10;;;;;;;12.63;11.90;;;;;;;;;;5079917;28;20036;-74
2023/07/31 12:48:36;;;;;;;13.18;12.38;;;;;;;;;;5076103;28;20040;-77
2023/07/31 12:51:02;;;;;;;14.00;13.10;;;;;;;;;;5076892;28;20044;-80
2023/07/31 12:53:28;;;;;;;12.85;12.13;;;;;;;;;;5094402;28;20063;-78
2023/07/31 12:55:56;;;;;;;17.83;16.75;;;;;;;;;;5080144;28;20082;-78
2023/07/31 12:58:21;;;;;;;14.45;13.63;;;;;;;;;;5079290;28;20029;-80
2023/07/31 13:00:47;;;;;;;17.00;16.00;;;;;;;;;;5082786;28;20093;-74
2023/07/31 13:03:12;;;;;;;17.90;16.88;;;;;;;;;;5079150;28;20363;-74
2023/07/31 13:05:38;;;;;;;13.77;12.98;;;;;;;;;;5079340;28;20362;-74
2023/07/31 13:08:03;;;;;;;17.88;16.88;;;;;;;;;;5079545;28;20513;-78
2023/07/31 13:10:29;;;;;;;13.07;12.27;;;;;;;;;;5076210;28;20043;-73
2023/07/31 13:12:55;;;;;;;16.25;15.25;;;;;;;;;;5078133;28;20456;-75
2023/07/31 13:15:20;;;;;;;15.13;14.23;;;;;;;;;;5077184;28;20063;-76
2023/07/31 13:17:46;;;;;;;18.20;17.20;;;;;;;;;;5077693;28;20028;-81
2023/07/31 13:20:12;;;;;;;18.85;17.77;;;;;;;;;;5078739;28;20032;-75
2023/07/31 13:22:37;;;;;;;15.77;14.77;;;;;;;;;;5078224;28;20610;-77
2023/07/31 13:25:03;;;;;;;26.05;24.65;;;;;;;;;;5080457;28;20454;-80
2023/07/31 13:27:28;;;;;;;15.90;14.70;;;;;;;;;;5078965;28;20401;-75
2023/07/31 13:29:54;;;;;;;16.65;15.70;;;;;;;;;;5080299;28;20042;-77
2023/07/31 13:32:20;;;;;;;16.77;15.77;;;;;;;;;;5076170;28;20028;-76
2023/07/31 13:34:47;;;;;;;14.95;13.95;;;;;;;;;;5077560;28;20033;-76
2023/07/31 13:37:13;;;;;;;17.17;16.17;;;;;;;;;;5078383;28;20115;-79
2023/07/31 13:39:38;;;;;;;17.27;16.27;;;;;;;;;;5078838;28;20127;-73
2023/07/31 13:42:07;;;;;;;25.83;24.45;;;;;;;;;;5082959;28;20036;-78
2023/07/31 13:44:33;;;;;;;15.10;13.98;;;;;;;;;;5076079;28;20370;-76
2023/07/31 13:47:00;;;;;;;16.40;15.30;;;;;;;;;;5078075;28;20036;-76
2023/07/31 13:49:25;;;;;;;14.93;14.07;;;;;;;;;;5080607;28;20039;-76
2023/07/31 13:51:50;;;;;;;15.70;14.80;;;;;;;;;;5075847;28;20039;-76
2023/07/31 13:54:16;;;;;;;14.23;13.40;;;;;;;;;;5079713;28;20400;-74
2023/07/31 13:56:42;;;;;;;16.73;15.73;;;;;;;;;;5080831;28;20047;-74
2023/07/31 13:59:08;;;;;;;15.85;14.95;;;;;;;;;;5080488;28;20032;-70
2023/07/31 14:01:33;;;;;;;17.45;16.45;;;;;;;;;;5078600;28;20101;-71
2023/07/31 14:03:58;;;;;;;18.75;17.65;;;;;;;;;;5077741;28;20028;-71
2023/07/31 14:06:24;;;;;;;15.80;14.80;;;;;;;;;;5079626;28;20105;-73
2023/07/31 14:08:49;;;;;;;16.40;15.50;;;;;;;;;;5076231;28;20412;-73
2023/07/31 14:11:14;;;;;;;16.77;15.82;;;;;;;;;;5078124;28;20098;-71
2023/07/31 14:13:40;;;;;;;16.48;15.52;;;;;;;;;;5077916;28;20534;-73
2023/07/31 14:16:06;;;;;;;14.48;13.63;;;;;;;;;;5076313;28;20056;-72